createdAt,value
2019-03-04T00:01:22.583Z,2.27
2019-03-04T00:03:51.904Z,2.80
2019-03-04T00:06:21.216Z,2.87
2019-03-04T00:08:50.592Z,3.23
2019-03-04T00:11:19.925Z,3.70
2019-03-04T00:13:49.304Z,3.37
2019-03-04T00:16:18.606Z,2.80
2019-03-04T00:18:48.486Z,2.37
2019-03-04T00:21:17.787Z,3.10
2019-03-04T00:23:47.067Z,2.63
2019-03-04T00:26:16.400Z,2.13
2019-03-04T00:28:45.698Z,2.37
2019-03-04T00:31:15.133Z,2.10
2019-03-04T00:33:44.477Z,2.20
2019-03-04T00:36:13.768Z,2.43
2019-03-04T00:38:43.031Z,1.90
2019-03-04T00:41:12.345Z,2.47
2019-03-04T00:43:41.771Z,2.00
2019-03-04T00:46:11.077Z,1.47
2019-03-04T00:48:40.413Z,2.03
2019-03-04T00:51:09.684Z,2.50
2019-03-04T00:53:38.985Z,1.70
2019-03-04T00:56:08.291Z,2.33
2019-03-04T00:58:37.677Z,2.07
2019-03-04T01:01:06.992Z,1.63
2019-03-04T01:03:36.325Z,1.47
2019-03-04T01:06:05.596Z,1.63
2019-03-04T01:08:34.961Z,1.80
2019-03-04T01:11:04.272Z,2.20
2019-03-04T01:13:33.690Z,1.47
2019-03-04T01:16:03.001Z,1.97
2019-03-04T01:18:32.322Z,1.97
2019-03-04T01:21:01.774Z,1.83
2019-03-04T01:23:31.219Z,1.33
2019-03-04T01:26:00.560Z,1.80
2019-03-04T01:28:29.835Z,1.47
2019-03-04T01:30:59.211Z,1.67
2019-03-04T01:33:28.498Z,1.43
2019-03-04T01:35:57.892Z,1.50
2019-03-04T01:38:27.214Z,1.20
2019-03-04T01:40:56.499Z,2.17
2019-03-04T01:43:25.854Z,1.77
2019-03-04T01:45:55.216Z,1.50
2019-03-04T01:48:24.654Z,1.20
2019-03-04T01:50:54.021Z,1.77
2019-03-04T01:53:23.385Z,1.73
2019-03-04T01:55:52.663Z,1.10
2019-03-04T01:58:22.076Z,1.43
2019-03-04T02:00:51.447Z,1.37
2019-03-04T02:03:20.772Z,1.47
2019-03-04T02:05:50.100Z,1.10
2019-03-04T02:08:19.405Z,1.20
2019-03-04T02:10:48.703Z,0.90
2019-03-04T02:13:17.992Z,1.10
2019-03-04T02:15:47.327Z,1.00
2019-03-04T02:18:16.604Z,1.50
2019-03-04T02:20:45.880Z,1.13
2019-03-04T02:23:15.205Z,1.10
2019-03-04T02:26:06.821Z,1.10
2019-03-04T02:28:36.189Z,1.00
2019-03-04T02:31:05.979Z,1.10
2019-03-04T02:33:35.619Z,1.20
2019-03-04T02:36:04.996Z,1.10
2019-03-04T02:38:34.277Z,1.37
2019-03-04T02:41:03.574Z,1.03
2019-03-04T02:43:32.889Z,1.53
2019-03-04T02:46:02.173Z,1.60
2019-03-04T02:48:31.460Z,1.90
2019-03-04T02:51:00.791Z,1.67
2019-03-04T02:53:30.147Z,1.23
2019-03-04T02:55:59.504Z,1.30
2019-03-04T02:58:28.890Z,1.37
2019-03-04T03:00:58.164Z,1.87
2019-03-04T03:03:27.433Z,1.60
2019-03-04T03:05:56.730Z,2.30
2019-03-04T03:08:26.005Z,1.97
2019-03-04T03:10:55.283Z,1.40
2019-03-04T03:13:24.752Z,1.60
2019-03-04T03:15:54.035Z,2.23
2019-03-04T03:18:23.304Z,2.00
2019-03-04T03:20:52.612Z,1.40
2019-03-04T03:23:21.880Z,1.87
2019-03-04T03:25:51.207Z,1.77
2019-03-04T03:28:20.564Z,2.00
2019-03-04T03:30:49.939Z,2.20
2019-03-04T03:33:19.364Z,1.57
2019-03-04T03:35:48.716Z,1.87
2019-03-04T03:38:18.001Z,1.60
2019-03-04T03:40:47.388Z,2.23
2019-03-04T03:43:16.735Z,1.90
2019-03-04T03:45:46.066Z,1.60
2019-03-04T03:48:15.430Z,2.00
2019-03-04T03:50:44.703Z,1.60
2019-03-04T03:53:13.995Z,1.57
2019-03-04T03:55:43.311Z,1.30
2019-03-04T03:58:12.597Z,1.93
2019-03-04T04:00:41.882Z,1.60
2019-03-04T04:03:11.191Z,1.23
2019-03-04T04:05:40.477Z,1.80
2019-03-04T04:08:09.761Z,1.73
2019-03-04T04:10:39.060Z,1.60
2019-03-04T04:13:08.337Z,1.43
2019-03-04T04:15:37.711Z,1.37
2019-03-04T04:18:07.090Z,1.83
2019-03-04T04:20:36.369Z,1.33
2019-03-04T04:23:05.675Z,1.00
2019-03-04T04:25:35.043Z,1.30
2019-03-04T04:28:07.208Z,0.80
2019-03-04T04:30:37.086Z,1.50
2019-03-04T04:33:06.371Z,1.00
2019-03-04T04:35:35.660Z,0.97
2019-03-04T04:38:04.937Z,0.90
2019-03-04T04:40:34.207Z,1.17
2019-03-04T04:43:03.523Z,1.33
2019-03-04T04:45:32.891Z,1.00
2019-03-04T04:48:02.194Z,1.50
2019-03-04T04:50:31.894Z,1.03
2019-03-04T04:53:01.174Z,1.13
2019-03-04T04:55:30.450Z,1.73
2019-03-04T04:57:59.775Z,1.30
2019-03-04T05:00:31.118Z,1.53
2019-03-04T05:03:00.045Z,1.20
2019-03-04T05:05:29.348Z,1.60
2019-03-04T05:07:58.625Z,1.70
2019-03-04T05:10:27.905Z,1.60
2019-03-04T05:12:57.204Z,1.60
2019-03-04T05:15:26.482Z,1.30
2019-03-04T05:17:55.868Z,1.40
2019-03-04T05:20:25.177Z,1.57
2019-03-04T05:22:54.468Z,1.87
2019-03-04T05:25:23.846Z,1.50
2019-03-04T05:27:53.150Z,1.70
2019-03-04T05:30:22.543Z,1.50
2019-03-04T05:32:51.917Z,2.20
2019-03-04T05:35:21.256Z,1.90
2019-03-04T05:37:50.561Z,1.67
2019-03-04T05:40:19.864Z,2.20
2019-03-04T05:42:49.186Z,1.70
2019-03-04T05:45:18.619Z,1.33
2019-03-04T05:47:47.919Z,1.53
2019-03-04T05:50:17.441Z,1.63
2019-03-04T05:52:46.743Z,1.30
2019-03-04T05:55:16.079Z,1.43
2019-03-04T05:57:45.567Z,1.10
2019-03-04T06:00:16.909Z,1.30
2019-03-04T06:02:46.194Z,1.80
2019-03-04T06:05:15.738Z,1.50
2019-03-04T06:07:54.100Z,1.97
2019-03-04T06:10:23.411Z,1.87
2019-03-04T06:12:52.687Z,1.83
2019-03-04T06:15:22.268Z,1.20
2019-03-04T06:17:51.561Z,1.80
2019-03-04T06:20:21.157Z,1.50
2019-03-04T06:22:50.458Z,1.90
2019-03-04T06:25:25.180Z,3.57
2019-03-04T06:27:54.489Z,4.33
2019-03-04T06:30:24.801Z,2.47
2019-03-04T06:32:54.080Z,1.70
2019-03-04T06:35:23.399Z,1.23
2019-03-04T06:37:52.656Z,1.27
2019-03-04T06:40:22.162Z,1.50
2019-03-04T06:42:51.534Z,1.07
2019-03-04T06:45:20.960Z,1.83
2019-03-04T06:47:50.338Z,1.80
2019-03-04T06:50:47.460Z,0.97
2019-03-04T06:53:38.234Z,1.47
2019-03-04T06:56:21.949Z,1.20
2019-03-04T06:58:53.523Z,0.80
2019-03-04T07:01:31.942Z,1.10
2019-03-04T07:04:18.453Z,2.40
2019-03-04T07:06:47.793Z,1.03
2019-03-04T07:09:19.097Z,0.90
2019-03-04T07:11:52.568Z,1.27
2019-03-04T07:14:21.948Z,1.23
2019-03-04T07:16:53.293Z,1.40
2019-03-04T07:19:26.857Z,1.20
2019-03-04T07:21:56.253Z,1.27
2019-03-04T07:24:25.540Z,0.93
2019-03-04T07:26:54.923Z,1.40
2019-03-04T07:29:24.207Z,1.70
2019-03-04T07:31:53.485Z,1.17
2019-03-04T07:34:22.797Z,0.97
2019-03-04T07:36:52.129Z,0.80
2019-03-04T07:39:21.679Z,0.63
2019-03-04T07:41:55.476Z,0.90
2019-03-04T07:44:24.751Z,0.63
2019-03-04T07:46:54.016Z,0.70
2019-03-04T07:49:23.332Z,0.60
2019-03-04T07:51:52.675Z,1.27
2019-03-04T07:54:21.932Z,1.33
2019-03-04T07:56:51.254Z,1.10
2019-03-04T07:59:20.569Z,1.00
2019-03-04T08:01:49.850Z,1.70
2019-03-04T08:04:19.164Z,1.37
2019-03-04T08:06:48.539Z,1.13
2019-03-04T08:10:06.365Z,1.20
2019-03-04T08:13:04.644Z,1.60
2019-03-04T08:15:39.394Z,1.23
2019-03-04T08:18:08.676Z,1.30
2019-03-04T08:20:37.949Z,1.87
2019-03-04T08:23:07.291Z,1.70
2019-03-04T08:25:36.647Z,1.80
2019-03-04T08:28:07.398Z,1.77
2019-03-04T08:30:36.696Z,1.20
2019-03-04T08:33:05.995Z,1.60
2019-03-04T08:35:35.275Z,2.10
2019-03-04T08:38:04.829Z,1.47
2019-03-04T08:40:34.113Z,1.40
2019-03-04T08:43:03.392Z,1.13
2019-03-04T08:45:32.834Z,2.03
2019-03-04T08:48:02.100Z,1.93
2019-03-04T08:50:31.393Z,2.47
2019-03-04T08:53:00.736Z,1.63
2019-03-04T08:55:30.181Z,1.77
2019-03-04T08:57:59.483Z,2.20
2019-03-04T09:00:29.345Z,1.73
2019-03-04T09:02:58.626Z,2.43
2019-03-04T09:05:27.901Z,1.70
2019-03-04T09:07:57.215Z,1.47
2019-03-04T09:10:28.018Z,1.87
2019-03-04T09:12:57.311Z,1.83
2019-03-04T09:15:26.810Z,1.10
2019-03-04T09:17:56.089Z,1.20
2019-03-04T09:20:25.664Z,1.30
2019-03-04T09:22:55.488Z,1.93
2019-03-04T09:25:30.673Z,1.40
2019-03-04T09:27:59.142Z,1.93
2019-03-04T09:30:28.433Z,1.57
2019-03-04T09:32:57.837Z,2.10
2019-03-04T09:35:27.157Z,1.73
2019-03-04T09:37:56.523Z,1.40
2019-03-04T09:40:28.114Z,1.70
2019-03-04T09:42:57.459Z,1.90
2019-03-04T09:45:26.769Z,1.37
2019-03-04T09:47:56.051Z,1.10
2019-03-04T09:50:25.356Z,3.10
2019-03-04T09:52:54.651Z,1.80
2019-03-04T09:55:23.957Z,1.60
2019-03-04T09:57:53.242Z,1.70
2019-03-04T10:00:56.014Z,2.20
2019-03-04T10:04:11.105Z,1.40
2019-03-04T10:07:45.803Z,3.10
2019-03-04T10:10:56.049Z,2.07
2019-03-04T10:14:05.120Z,2.17
2019-03-04T10:17:00.082Z,1.83
2019-03-04T10:19:51.831Z,2.80
2019-03-04T10:23:11.090Z,2.20
2019-03-04T10:26:22.851Z,2.03
2019-03-04T10:29:05.782Z,2.53
2019-03-04T10:31:59.657Z,2.23
2019-03-04T10:35:09.741Z,2.40
2019-03-04T10:38:44.266Z,1.73
2019-03-04T10:41:42.301Z,1.90
2019-03-04T10:44:40.254Z,1.93
2019-03-04T10:47:09.546Z,2.90
2019-03-04T10:49:38.821Z,2.60
2019-03-04T10:52:08.144Z,1.43
2019-03-04T10:54:37.449Z,1.97
2019-03-04T10:57:06.757Z,2.43
2019-03-04T10:59:36.060Z,2.17
2019-03-04T11:02:05.372Z,4.13
2019-03-04T11:04:34.669Z,1.97
2019-03-04T11:07:03.940Z,1.60
2019-03-04T11:09:33.252Z,4.07
2019-03-04T11:12:02.537Z,1.80
2019-03-04T11:14:31.853Z,1.80
2019-03-04T11:17:01.139Z,1.67
2019-03-04T11:19:30.438Z,1.50
2019-03-04T11:21:59.744Z,1.17
2019-03-04T11:24:29.026Z,2.53
2019-03-04T11:26:58.352Z,1.50
2019-03-04T11:29:27.640Z,1.80
2019-03-04T11:31:56.930Z,1.30
2019-03-04T11:34:26.256Z,1.57
2019-03-04T11:36:55.540Z,2.27
2019-03-04T11:39:46.905Z,1.57
2019-03-04T11:42:16.208Z,1.50
2019-03-04T11:44:45.523Z,1.30
2019-03-04T11:47:15.194Z,2.43
2019-03-04T11:49:45.949Z,0.97
2019-03-04T11:52:15.636Z,1.20
2019-03-04T11:54:44.976Z,1.37
2019-03-04T11:57:14.273Z,0.83
2019-03-04T11:59:44.801Z,1.00
2019-03-04T12:02:19.142Z,1.00
2019-03-04T12:04:48.494Z,1.23
2019-03-04T12:07:17.989Z,1.17
2019-03-04T12:09:47.259Z,0.83
2019-03-04T12:12:16.558Z,1.30
2019-03-04T12:14:45.861Z,1.33
2019-03-04T12:17:15.296Z,1.67
2019-03-04T12:19:44.743Z,0.70
2019-03-04T12:22:14.093Z,0.90
2019-03-04T12:24:43.457Z,0.80
2019-03-04T12:27:12.960Z,1.20
2019-03-04T12:29:42.337Z,0.97
2019-03-04T12:32:19.632Z,0.80
2019-03-04T12:34:49.030Z,1.40
2019-03-04T12:37:18.391Z,1.37
2019-03-04T12:39:47.702Z,1.47
2019-03-04T12:42:16.966Z,1.20
2019-03-04T12:44:46.264Z,1.60
2019-03-04T12:47:16.465Z,1.63
2019-03-04T12:49:45.956Z,1.37
2019-03-04T12:52:16.839Z,1.80
2019-03-04T12:54:46.178Z,1.10
2019-03-04T12:57:15.493Z,1.40
2019-03-04T12:59:44.820Z,0.90
2019-03-04T13:02:14.691Z,1.40
2019-03-04T13:04:44.116Z,1.27
2019-03-04T13:07:13.412Z,1.23
2019-03-04T13:09:44.798Z,1.10
2019-03-04T13:12:14.104Z,1.17
2019-03-04T13:14:43.401Z,1.47
2019-03-04T13:17:12.710Z,1.00
2019-03-04T13:19:42.000Z,1.40
2019-03-04T13:22:11.312Z,1.90
2019-03-04T13:24:40.684Z,1.57
2019-03-04T13:27:09.990Z,1.73
2019-03-04T13:29:39.314Z,1.60
2019-03-04T13:32:08.676Z,1.27
2019-03-04T13:34:37.952Z,1.77
2019-03-04T13:37:07.237Z,1.40
2019-03-04T13:39:36.540Z,1.53
2019-03-04T13:42:05.819Z,1.33
2019-03-04T13:44:35.145Z,1.37
2019-03-04T13:47:04.433Z,1.10
2019-03-04T13:49:33.724Z,1.90
2019-03-04T13:52:03.024Z,1.57
2019-03-04T13:54:32.299Z,2.00
2019-03-04T13:57:01.600Z,1.33
2019-03-04T13:59:30.918Z,1.33
2019-03-04T14:02:00.301Z,1.67
2019-03-04T14:04:29.657Z,1.10
2019-03-04T14:06:58.929Z,1.53
2019-03-04T14:09:28.226Z,3.00
2019-03-04T14:11:57.505Z,1.73
2019-03-04T14:14:26.807Z,1.80
2019-03-04T14:16:56.181Z,1.23
2019-03-04T14:19:25.488Z,2.27
2019-03-04T14:21:54.776Z,1.57
2019-03-04T14:24:24.072Z,2.50
2019-03-04T14:26:53.346Z,2.53
2019-03-04T14:29:22.651Z,1.50
2019-03-04T14:31:51.956Z,1.57
2019-03-04T14:34:21.272Z,1.77
2019-03-04T14:36:50.540Z,1.60
2019-03-04T14:39:21.226Z,1.80
2019-03-04T14:41:50.641Z,1.90
2019-03-04T14:44:19.909Z,1.77
2019-03-04T14:46:49.207Z,2.43
2019-03-04T14:49:18.496Z,2.60
2019-03-04T14:51:48.082Z,1.60
2019-03-04T14:54:17.368Z,1.70
2019-03-04T14:56:47.481Z,1.90
2019-03-04T14:59:16.847Z,2.20
2019-03-04T15:01:46.141Z,1.90
2019-03-04T15:04:15.537Z,1.70
2019-03-04T15:06:44.854Z,1.83
2019-03-04T15:09:15.224Z,2.63
2019-03-04T15:11:44.536Z,1.63
2019-03-04T15:14:13.830Z,2.57
2019-03-04T15:16:43.551Z,2.13
2019-03-04T15:19:12.846Z,1.80
2019-03-04T15:21:42.639Z,2.93
2019-03-04T15:24:11.928Z,1.63
2019-03-04T15:26:44.200Z,2.43
2019-03-04T15:29:12.269Z,2.30
2019-03-04T15:31:41.565Z,2.07
2019-03-04T15:34:10.867Z,1.77
2019-03-04T15:36:40.133Z,1.90
2019-03-04T15:39:22.601Z,1.90
2019-03-04T15:41:46.734Z,1.27
2019-03-04T15:44:16.017Z,3.17
2019-03-04T15:46:45.315Z,2.40
2019-03-04T15:49:14.615Z,2.00
2019-03-04T15:51:43.921Z,2.63
2019-03-04T15:54:13.198Z,2.27
2019-03-04T15:56:42.527Z,2.20
2019-03-04T15:59:11.894Z,2.03
2019-03-04T16:01:41.215Z,2.57
2019-03-04T16:04:10.516Z,1.73
2019-03-04T16:06:39.800Z,1.90
2019-03-04T16:09:15.855Z,1.87
2019-03-04T16:11:45.265Z,2.17
2019-03-04T16:14:14.613Z,1.83
2019-03-04T16:16:43.892Z,1.90
2019-03-04T16:19:13.173Z,1.40
2019-03-04T16:21:42.466Z,1.77
2019-03-04T16:24:11.836Z,2.17
2019-03-04T16:26:41.136Z,1.60
2019-03-04T16:29:10.453Z,1.60
2019-03-04T16:31:39.741Z,1.20
2019-03-04T16:34:09.045Z,1.70
2019-03-04T16:36:38.328Z,2.00
2019-03-04T16:39:07.752Z,1.40
2019-03-04T16:41:37.036Z,2.20
2019-03-04T16:44:06.333Z,1.60
2019-03-04T16:46:35.625Z,1.60
2019-03-04T16:49:04.942Z,1.90
2019-03-04T16:51:34.242Z,2.23
2019-03-04T16:54:03.664Z,1.63
2019-03-04T16:56:32.942Z,1.60
2019-03-04T16:59:02.297Z,1.70
2019-03-04T17:01:31.576Z,1.90
2019-03-04T17:04:00.876Z,2.33
2019-03-04T17:06:30.185Z,1.23
2019-03-04T17:08:59.465Z,1.73
2019-03-04T17:11:28.761Z,1.87
2019-03-04T17:13:58.092Z,1.30
2019-03-04T17:16:27.388Z,1.40
2019-03-04T17:18:56.689Z,1.40
2019-03-04T17:21:26.006Z,1.60
2019-03-04T17:23:55.376Z,1.40
2019-03-04T17:26:24.679Z,1.70
2019-03-04T17:28:53.992Z,2.13
2019-03-04T17:31:23.498Z,1.30
2019-03-04T17:33:52.805Z,1.83
2019-03-04T17:36:22.115Z,1.60
2019-03-04T17:38:51.393Z,1.80
2019-03-04T17:41:20.698Z,2.50
2019-03-04T17:43:49.969Z,1.87
2019-03-04T17:46:19.277Z,1.57
2019-03-04T17:48:48.560Z,1.67
2019-03-04T17:51:17.856Z,1.40
2019-03-04T17:53:47.154Z,1.80
2019-03-04T17:56:16.471Z,2.10
2019-03-04T17:58:45.761Z,1.97
2019-03-04T18:01:15.062Z,1.30
2019-03-04T18:03:44.328Z,2.50
2019-03-04T18:06:13.627Z,2.20
2019-03-04T18:08:42.911Z,2.13
2019-03-04T18:11:12.213Z,2.00
2019-03-04T18:13:41.500Z,2.13
2019-03-04T18:16:10.791Z,1.40
2019-03-04T18:18:40.091Z,1.90
2019-03-04T18:21:09.384Z,1.97
2019-03-04T18:23:38.750Z,2.27
2019-03-04T18:26:15.010Z,1.83
2019-03-04T18:29:04.917Z,2.40
2019-03-04T18:32:11.676Z,2.60
2019-03-04T18:35:37.374Z,1.80
2019-03-04T18:38:59.605Z,1.50
2019-03-04T18:41:39.261Z,2.20
2019-03-04T18:44:30.236Z,2.10
2019-03-04T18:47:40.744Z,2.10
2019-03-04T18:50:10.024Z,2.30
2019-03-04T18:52:39.331Z,2.70
2019-03-04T18:55:08.997Z,2.37
2019-03-04T18:57:38.350Z,3.43
2019-03-04T19:00:13.082Z,2.60
2019-03-04T19:02:42.372Z,3.70
2019-03-04T19:05:11.853Z,3.00
2019-03-04T19:07:41.126Z,2.40
2019-03-04T19:10:10.590Z,2.30
2019-03-04T19:12:39.865Z,2.30
2019-03-04T19:15:09.586Z,1.83
2019-03-04T19:17:38.862Z,2.40
2019-03-04T19:20:10.880Z,2.13
2019-03-04T19:22:40.166Z,3.07
2019-03-04T19:25:09.578Z,2.47
2019-03-04T19:27:38.858Z,2.40
2019-03-04T19:30:08.997Z,2.70
2019-03-04T19:32:38.277Z,2.17
2019-03-04T19:35:07.813Z,2.37
2019-03-04T19:37:37.212Z,4.00
2019-03-04T19:40:06.788Z,2.37
2019-03-04T19:42:36.087Z,1.60
2019-03-04T19:45:06.642Z,2.50
2019-03-04T19:47:35.945Z,2.83
2019-03-04T19:50:05.810Z,2.60
2019-03-04T19:52:35.102Z,2.70
2019-03-04T19:55:05.561Z,3.00
2019-03-04T19:57:34.870Z,2.77
2019-03-04T20:00:05.181Z,2.00
2019-03-04T20:02:34.487Z,3.07
2019-03-04T20:05:03.886Z,3.23
2019-03-04T20:07:33.311Z,3.90
2019-03-04T20:10:02.586Z,4.70
2019-03-04T20:12:31.886Z,5.40
2019-03-04T20:15:01.191Z,6.20
2019-03-04T20:17:30.508Z,3.80
2019-03-04T20:19:59.805Z,3.30
2019-03-04T20:22:29.133Z,2.70
2019-03-04T20:24:58.421Z,2.10
2019-03-04T20:27:27.760Z,2.27
2019-03-04T20:29:57.082Z,2.40
2019-03-04T20:32:26.399Z,2.63
2019-03-04T20:34:55.761Z,2.23
2019-03-04T20:37:26.100Z,2.40
2019-03-04T20:39:55.397Z,2.70
2019-03-04T20:42:24.702Z,2.60
2019-03-04T20:44:54.016Z,2.03
2019-03-04T20:47:23.323Z,3.07
2019-03-04T20:49:52.665Z,2.10
2019-03-04T20:52:22.188Z,2.60
2019-03-04T20:54:51.598Z,1.43
2019-03-04T20:57:20.921Z,1.70
2019-03-04T20:59:50.201Z,1.53
2019-03-04T21:02:19.615Z,1.70
2019-03-04T21:04:49.004Z,1.47
2019-03-04T21:07:18.449Z,1.27
2019-03-04T21:09:49.705Z,0.83
2019-03-04T21:12:19.025Z,1.37
2019-03-04T21:14:48.401Z,0.83
2019-03-04T21:17:19.077Z,1.37
2019-03-04T21:19:48.484Z,1.10
2019-03-04T21:22:18.057Z,1.13
2019-03-04T21:24:47.524Z,1.27
2019-03-04T21:27:17.150Z,1.13
2019-03-04T21:30:42.657Z,1.27
2019-03-04T21:33:35.066Z,1.00
2019-03-04T21:36:38.665Z,1.23
2019-03-04T21:39:08.162Z,1.10
2019-03-04T21:42:19.674Z,1.57
2019-03-04T21:45:20.239Z,2.00
2019-03-04T21:47:56.738Z,1.30
2019-03-04T21:50:45.660Z,1.50
2019-03-04T21:53:19.526Z,2.47
2019-03-04T21:56:26.210Z,2.97
2019-03-04T21:58:55.705Z,1.77
2019-03-04T22:01:29.201Z,1.73
2019-03-04T22:03:58.728Z,2.03
2019-03-04T22:06:28.080Z,1.60
2019-03-04T22:08:57.657Z,1.67
2019-03-04T22:11:27.160Z,1.77
2019-03-04T22:13:56.825Z,1.90
2019-03-04T22:16:26.248Z,2.00
2019-03-04T22:18:55.733Z,2.70
2019-03-04T22:21:25.098Z,2.20
2019-03-04T22:23:54.520Z,2.07
2019-03-04T22:26:24.013Z,2.70
2019-03-04T22:28:53.357Z,1.87
2019-03-04T22:31:22.886Z,1.83
2019-03-04T22:33:52.949Z,2.30
2019-03-04T22:36:22.427Z,1.80
2019-03-04T22:38:52.053Z,2.07
2019-03-04T22:41:21.621Z,3.03
2019-03-04T22:43:51.005Z,2.70
2019-03-04T22:46:20.383Z,2.43
2019-03-04T22:48:49.683Z,1.60
2019-03-04T22:51:19.159Z,2.23
2019-03-04T22:53:49.950Z,1.60
2019-03-04T22:56:19.293Z,2.50
2019-03-04T22:58:48.684Z,2.50
2019-03-04T23:01:47.250Z,2.87
2019-03-04T23:04:54.807Z,1.53
2019-03-04T23:07:35.960Z,2.43
2019-03-04T23:10:15.937Z,3.33
2019-03-04T23:13:15.820Z,2.70
2019-03-04T23:15:47.538Z,2.10
2019-03-04T23:18:16.948Z,3.37
2019-03-04T23:20:46.769Z,2.70
2019-03-04T23:23:16.122Z,3.53
2019-03-04T23:25:45.552Z,4.23
2019-03-04T23:28:14.829Z,2.47
2019-03-04T23:30:45.827Z,3.70
2019-03-04T23:33:15.474Z,3.23
2019-03-04T23:35:44.802Z,1.80
2019-03-04T23:38:14.189Z,3.10
2019-03-04T23:40:43.491Z,2.80
2019-03-04T23:43:12.822Z,1.90
2019-03-04T23:45:42.179Z,2.67
2019-03-04T23:48:11.606Z,1.93
2019-03-04T23:50:41.007Z,2.10
2019-03-04T23:53:10.309Z,1.80
2019-03-04T23:55:39.704Z,1.63
2019-03-04T23:58:08.976Z,2.03
